Time;durP1;ratioP1;P1;durP2;ratioP2;P2;SDS_P1;SDS_P2;PMS_P1;PMS_P2;Temp;Humidity;BMP_temperature;BMP_pressure;BME280_temperature;BME280_humidity;BME280_pressure;Samples;Min_cycle;Max_cycle;Signal;HPM_P1;HPM_P2
2022/11/09 00:00:07;;;;;;;44.72;26.52;;;;;;;;;;5156291;27;20034;-75
2022/11/09 00:02:54;;;;;;;48.15;27.08;;;;;;;;;;5155402;27;20026;-74
2022/11/09 00:05:39;;;;;;;48.28;27.67;;;;;;;;;;5154821;27;20043;-74
2022/11/09 00:08:25;;;;;;;44.03;27.33;;;;;;;;;;5155283;27;20029;-74
2022/11/09 00:11:11;;;;;;;46.17;27.30;;;;;;;;;;5154778;27;20015;-75
2022/11/09 00:13:56;;;;;;;47.25;27.27;;;;;;;;;;5155066;27;20505;-75
2022/11/09 00:16:42;;;;;;;45.92;27.48;;;;;;;;;;5155442;27;20015;-74
2022/11/09 00:19:27;;;;;;;48.38;28.35;;;;;;;;;;5139726;27;20042;-73
2022/11/09 00:22:13;;;;;;;46.60;27.77;;;;;;;;;;5155345;27;20014;-74
2022/11/09 00:24:59;;;;;;;43.15;26.70;;;;;;;;;;5144248;27;20025;-73
2022/11/09 00:27:44;;;;;;;44.03;28.02;;;;;;;;;;5156862;27;20023;-74
2022/11/09 00:30:30;;;;;;;48.90;28.25;;;;;;;;;;5155057;27;20026;-75
2022/11/09 00:33:15;;;;;;;51.38;28.08;;;;;;;;;;5155798;27;20026;-74
2022/11/09 00:36:08;;;;;;;47.65;27.73;;;;;;;;;;5155684;27;20444;-75
2022/11/09 00:38:54;;;;;;;44.80;27.52;;;;;;;;;;5156536;27;20075;-76
2022/11/09 00:41:40;;;;;;;48.00;28.55;;;;;;;;;;5158596;27;20019;-74
2022/11/09 00:44:26;;;;;;;47.65;28.85;;;;;;;;;;5165221;27;20047;-73
2022/11/09 00:47:11;;;;;;;49.45;27.52;;;;;;;;;;5160139;27;20455;-73
2022/11/09 00:49:57;;;;;;;50.28;28.48;;;;;;;;;;5158251;27;20087;-74
2022/11/09 00:52:42;;;;;;;54.28;29.80;;;;;;;;;;5159496;27;20110;-73
2022/11/09 00:55:28;;;;;;;49.50;28.90;;;;;;;;;;5158128;27;20460;-73
2022/11/09 00:58:13;;;;;;;47.47;29.40;;;;;;;;;;5159223;27;20026;-74
2022/11/09 01:01:04;;;;;;;46.30;28.73;;;;;;;;;;5143519;27;20027;-75
2022/11/09 01:03:49;;;;;;;50.97;29.27;;;;;;;;;;5158296;27;20037;-74
2022/11/09 01:06:35;;;;;;;50.90;29.52;;;;;;;;;;5158761;27;20459;-75
2022/11/09 01:09:20;;;;;;;52.08;27.75;;;;;;;;;;5158558;27;20054;-75
2022/11/09 01:12:06;;;;;;;47.05;28.08;;;;;;;;;;5158855;27;20015;-75
2022/11/09 01:14:52;;;;;;;50.13;29.15;;;;;;;;;;5157816;27;20035;-74
2022/11/09 01:17:37;;;;;;;47.80;28.63;;;;;;;;;;5157992;27;20026;-73
2022/11/09 01:20:23;;;;;;;52.25;28.77;;;;;;;;;;5158857;27;20029;-73
2022/11/09 01:23:09;;;;;;;50.00;29.30;;;;;;;;;;5157526;27;20019;-75
2022/11/09 01:25:58;;;;;;;48.20;29.27;;;;;;;;;;5157583;27;20046;-72
2022/11/09 01:28:44;;;;;;;50.50;29.40;;;;;;;;;;5157958;27;20377;-74
2022/11/09 01:31:30;;;;;;;50.83;29.45;;;;;;;;;;5157343;27;20090;-73
2022/11/09 01:34:16;;;;;;;49.40;29.02;;;;;;;;;;5157524;27;20014;-73
2022/11/09 01:37:01;;;;;;;53.78;29.73;;;;;;;;;;5157054;27;20463;-73
2022/11/09 01:39:47;;;;;;;47.42;28.90;;;;;;;;;;5158445;27;20029;-73
2022/11/09 01:42:36;;;;;;;50.22;28.08;;;;;;;;;;5157747;27;20375;-75
2022/11/09 01:45:29;;;;;;;47.25;28.67;;;;;;;;;;5157111;27;20050;-74
2022/11/09 01:48:16;;;;;;;48.63;28.85;;;;;;;;;;5158199;27;20027;-74
2022/11/09 01:51:05;;;;;;;49.45;28.33;;;;;;;;;;5156395;27;20027;-74
2022/11/09 01:53:54;;;;;;;55.50;29.23;;;;;;;;;;5157570;27;20022;-74
2022/11/09 01:56:40;;;;;;;46.22;28.38;;;;;;;;;;5157172;27;20074;-74
2022/11/09 01:59:28;;;;;;;46.08;27.75;;;;;;;;;;5156912;27;20087;-73
2022/11/09 02:02:14;;;;;;;53.70;29.25;;;;;;;;;;5156188;27;20038;-74
2022/11/09 02:05:03;;;;;;;50.53;27.02;;;;;;;;;;5157143;27;20018;-73
2022/11/09 02:07:49;;;;;;;41.83;25.27;;;;;;;;;;5141577;27;20101;-73
2022/11/09 02:10:39;;;;;;;43.63;25.85;;;;;;;;;;5158233;27;20022;-73
2022/11/09 02:13:25;;;;;;;46.53;25.23;;;;;;;;;;5156820;27;20015;-74
2022/11/09 02:16:12;;;;;;;43.58;25.17;;;;;;;;;;5157184;27;20023;-73
2022/11/09 02:18:59;;;;;;;42.35;25.88;;;;;;;;;;5141851;27;20026;-74
2022/11/09 02:21:45;;;;;;;43.95;24.85;;;;;;;;;;5156459;27;20031;-73
2022/11/09 02:24:31;;;;;;;42.97;25.05;;;;;;;;;;5156859;27;20019;-74
2022/11/09 02:27:17;;;;;;;45.53;24.58;;;;;;;;;;5156062;27;20486;-73
2022/11/09 02:30:03;;;;;;;43.15;25.35;;;;;;;;;;5157101;27;20023;-72
2022/11/09 02:32:49;;;;;;;48.72;28.00;;;;;;;;;;5141358;27;20038;-73
2022/11/09 02:35:34;;;;;;;43.97;26.38;;;;;;;;;;5156994;27;20082;-74
2022/11/09 02:38:20;;;;;;;47.03;26.98;;;;;;;;;;5157646;27;20038;-74
2022/11/09 02:41:06;;;;;;;43.15;26.80;;;;;;;;;;5158508;27;20356;-76
2022/11/09 02:43:52;;;;;;;48.95;28.27;;;;;;;;;;5159073;27;20023;-75
2022/11/09 02:46:38;;;;;;;41.38;25.80;;;;;;;;;;5159788;27;20087;-73
2022/11/09 02:49:23;;;;;;;48.47;28.02;;;;;;;;;;5158497;27;20015;-73
2022/11/09 02:52:09;;;;;;;44.58;27.42;;;;;;;;;;5158236;27;20023;-72
2022/11/09 02:54:54;;;;;;;44.22;27.02;;;;;;;;;;5158389;27;20022;-72
2022/11/09 02:57:40;;;;;;;43.47;27.58;;;;;;;;;;5158357;27;20349;-73
2022/11/09 03:00:26;;;;;;;46.72;28.65;;;;;;;;;;5158465;27;20019;-74
2022/11/09 03:03:11;;;;;;;44.95;28.38;;;;;;;;;;5156782;27;20110;-73
2022/11/09 03:05:57;;;;;;;47.92;28.35;;;;;;;;;;5143062;27;20014;-73
2022/11/09 03:08:42;;;;;;;47.38;28.90;;;;;;;;;;5141500;27;20064;-73
2022/11/09 03:11:28;;;;;;;48.50;28.38;;;;;;;;;;5157697;27;20026;-73
2022/11/09 03:14:14;;;;;;;50.03;28.63;;;;;;;;;;5157266;27;20520;-74
2022/11/09 03:16:59;;;;;;;50.75;29.73;;;;;;;;;;5157574;27;20034;-73
2022/11/09 03:19:45;;;;;;;48.42;28.17;;;;;;;;;;5158588;27;20106;-74
2022/11/09 03:22:30;;;;;;;46.38;27.27;;;;;;;;;;5157516;27;20026;-74
2022/11/09 03:25:16;;;;;;;52.28;29.15;;;;;;;;;;5156042;27;20019;-72
2022/11/09 03:28:04;;;;;;;51.60;30.17;;;;;;;;;;5155562;27;20094;-73
2022/11/09 03:30:49;;;;;;;48.50;27.60;;;;;;;;;;5155076;27;20423;-73
2022/11/09 03:33:35;;;;;;;45.92;27.75;;;;;;;;;;5156363;27;20025;-74
2022/11/09 03:36:20;;;;;;;51.88;28.65;;;;;;;;;;5156033;27;20006;-73
2022/11/09 03:39:06;;;;;;;53.85;29.02;;;;;;;;;;5156260;27;20366;-73
2022/11/09 03:41:51;;;;;;;53.10;29.50;;;;;;;;;;5155863;27;20022;-72
2022/11/09 03:44:37;;;;;;;53.35;29.75;;;;;;;;;;5155300;27;20039;-73
2022/11/09 03:47:23;;;;;;;51.03;29.30;;;;;;;;;;5155757;27;20105;-73
2022/11/09 03:50:09;;;;;;;45.13;27.48;;;;;;;;;;5155876;27;20042;-73
2022/11/09 03:52:55;;;;;;;48.17;29.70;;;;;;;;;;5155120;27;20019;-74
2022/11/09 03:55:40;;;;;;;51.55;29.17;;;;;;;;;;5155523;27;20015;-75
2022/11/09 03:58:26;;;;;;;53.72;30.38;;;;;;;;;;5155179;27;20014;-75
2022/11/09 04:01:11;;;;;;;52.58;29.52;;;;;;;;;;5155410;27;20075;-75
2022/11/09 04:03:57;;;;;;;52.08;30.50;;;;;;;;;;5156137;27;20034;-73
2022/11/09 04:06:43;;;;;;;55.50;30.77;;;;;;;;;;5155945;27;20026;-75
2022/11/09 04:09:28;;;;;;;58.03;32.58;;;;;;;;;;5156389;27;20023;-73
2022/11/09 04:12:14;;;;;;;56.88;32.40;;;;;;;;;;5157654;27;20022;-74
2022/11/09 04:14:59;;;;;;;53.70;31.23;;;;;;;;;;5160663;27;20014;-74
2022/11/09 04:17:53;;;;;;;55.53;32.17;;;;;;;;;;5161644;27;20079;-72
2022/11/09 04:20:38;;;;;;;60.78;33.33;;;;;;;;;;5160544;27;20018;-73
2022/11/09 04:23:24;;;;;;;58.72;34.85;;;;;;;;;;5146305;27;20360;-73
2022/11/09 04:26:10;;;;;;;58.72;32.53;;;;;;;;;;5145632;27;20022;-73
2022/11/09 04:28:56;;;;;;;65.07;33.10;;;;;;;;;;5159854;27;20459;-73
2022/11/09 04:31:41;;;;;;;62.50;34.10;;;;;;;;;;5159613;27;20018;-74
2022/11/09 04:34:27;;;;;;;59.25;33.75;;;;;;;;;;5159525;27;20476;-74
2022/11/09 04:37:13;;;;;;;67.18;33.70;;;;;;;;;;5144704;27;20026;-76
2022/11/09 04:39:58;;;;;;;58.40;33.40;;;;;;;;;;5158616;27;20014;-73
2022/11/09 04:42:44;;;;;;;59.90;32.63;;;;;;;;;;5158602;27;20056;-74
2022/11/09 04:45:31;;;;;;;56.97;33.25;;;;;;;;;;5158916;27;20487;-73
2022/11/09 04:48:16;;;;;;;61.95;34.78;;;;;;;;;;5142894;27;20026;-71
2022/11/09 04:51:04;;;;;;;56.15;33.78;;;;;;;;;;5159389;27;20072;-73
2022/11/09 04:53:50;;;;;;;59.20;33.33;;;;;;;;;;5158595;27;20057;-73
2022/11/09 04:56:36;;;;;;;63.72;33.65;;;;;;;;;;5157620;27;20061;-73
2022/11/09 04:59:21;;;;;;;68.32;36.30;;;;;;;;;;5142985;27;20458;-73
2022/11/09 05:02:07;;;;;;;63.47;34.42;;;;;;;;;;5143341;27;20023;-73
2022/11/09 05:04:52;;;;;;;62.53;35.58;;;;;;;;;;5159076;27;20022;-73
2022/11/09 05:07:38;;;;;;;63.40;35.38;;;;;;;;;;5158344;27;20062;-73
2022/11/09 05:10:24;;;;;;;65.95;36.05;;;;;;;;;;5159028;27;20441;-72
2022/11/09 05:13:10;;;;;;;68.40;35.20;;;;;;;;;;5158761;27;20021;-72
2022/11/09 05:15:59;;;;;;;61.85;36.28;;;;;;;;;;5157743;27;20022;-73
2022/11/09 05:18:44;;;;;;;66.93;36.53;;;;;;;;;;5158080;27;20019;-73
2022/11/09 05:21:30;;;;;;;63.55;34.13;;;;;;;;;;5157667;27;20018;-74
2022/11/09 05:24:16;;;;;;;68.63;35.63;;;;;;;;;;5157731;27;20018;-74
2022/11/09 05:27:03;;;;;;;64.13;35.67;;;;;;;;;;5158010;27;20440;-73
2022/11/09 05:29:49;;;;;;;65.35;35.15;;;;;;;;;;5158342;27;20019;-74
2022/11/09 05:32:37;;;;;;;63.47;36.13;;;;;;;;;;5158020;27;20015;-75
2022/11/09 05:35:22;;;;;;;69.85;36.47;;;;;;;;;;5157902;27;20067;-75
2022/11/09 05:38:08;;;;;;;61.55;34.05;;;;;;;;;;5157914;27;20452;-74
2022/11/09 05:40:54;;;;;;;65.60;35.00;;;;;;;;;;5157786;27;20031;-74
2022/11/09 05:43:40;;;;;;;65.45;37.33;;;;;;;;;;5157355;27;20042;-74
2022/11/09 05:46:25;;;;;;;67.82;35.75;;;;;;;;;;5156959;27;20113;-74
2022/11/09 05:49:11;;;;;;;69.18;34.80;;;;;;;;;;5157278;27;20022;-75
2022/11/09 05:51:56;;;;;;;57.72;34.20;;;;;;;;;;5158003;27;20111;-75
2022/11/09 05:54:42;;;;;;;65.18;34.95;;;;;;;;;;5157381;27;20019;-75
2022/11/09 05:57:28;;;;;;;69.38;35.95;;;;;;;;;;5157703;27;20019;-75
2022/11/09 06:00:14;;;;;;;71.30;37.72;;;;;;;;;;5157479;27;20027;-75
2022/11/09 06:03:06;;;;;;;71.32;38.15;;;;;;;;;;5156947;27;20015;-75
2022/11/09 06:05:52;;;;;;;68.28;37.05;;;;;;;;;;5156491;27;20078;-74
2022/11/09 06:08:38;;;;;;;72.95;38.50;;;;;;;;;;5156978;27;20023;-74
2022/11/09 06:11:23;;;;;;;80.00;38.85;;;;;;;;;;5157208;27;20038;-73
2022/11/09 06:14:09;;;;;;;71.03;38.25;;;;;;;;;;5157638;27;20033;-74
2022/11/09 06:16:54;;;;;;;68.95;37.75;;;;;;;;;;5157208;27;20015;-74
2022/11/09 06:19:40;;;;;;;71.38;36.22;;;;;;;;;;5156451;27;20071;-75
2022/11/09 06:22:26;;;;;;;68.55;37.25;;;;;;;;;;5156812;27;20023;-75
2022/11/09 06:25:11;;;;;;;71.13;36.90;;;;;;;;;;5141412;27;20113;-75
2022/11/09 06:27:57;;;;;;;68.35;37.65;;;;;;;;;;5155789;27;20022;-74
2022/11/09 06:30:42;;;;;;;70.13;37.83;;;;;;;;;;5157104;27;20114;-74
2022/11/09 06:33:29;;;;;;;65.25;36.95;;;;;;;;;;5141198;27;20015;-74
2022/11/09 06:36:14;;;;;;;70.15;37.92;;;;;;;;;;5155656;27;20026;-74
2022/11/09 06:39:00;;;;;;;73.18;38.95;;;;;;;;;;5156839;27;20038;-74
2022/11/09 06:41:45;;;;;;;82.32;43.78;;;;;;;;;;5156888;27;20501;-74
2022/11/09 06:44:31;;;;;;;73.70;40.85;;;;;;;;;;5155764;27;20042;-75
2022/11/09 06:47:17;;;;;;;67.25;37.65;;;;;;;;;;5156655;27;20037;-74
2022/11/09 06:50:02;;;;;;;73.53;38.10;;;;;;;;;;5156435;27;20461;-75
2022/11/09 06:52:49;;;;;;;69.18;37.95;;;;;;;;;;5155570;27;20058;-75
2022/11/09 06:55:35;;;;;;;65.13;36.13;;;;;;;;;;5156836;27;20046;-73
2022/11/09 06:58:21;;;;;;;66.22;35.60;;;;;;;;;;5155238;27;20441;-74
2022/11/09 07:01:10;;;;;;;64.75;36.65;;;;;;;;;;5156123;27;20026;-75
2022/11/09 07:03:56;;;;;;;65.63;35.92;;;;;;;;;;5155971;27;20099;-74
2022/11/09 07:06:42;;;;;;;56.40;34.28;;;;;;;;;;5155477;27;20019;-75
2022/11/09 07:09:27;;;;;;;67.95;33.13;;;;;;;;;;5155886;27;20033;-71
2022/11/09 07:12:13;;;;;;;58.65;34.33;;;;;;;;;;5155701;27;20022;-72
2022/11/09 07:14:59;;;;;;;62.92;35.00;;;;;;;;;;5156366;27;20357;-71
2022/11/09 07:17:44;;;;;;;56.97;34.00;;;;;;;;;;5156101;27;20171;-72
2022/11/09 07:20:30;;;;;;;60.85;34.47;;;;;;;;;;5139708;27;20015;-71
2022/11/09 07:23:16;;;;;;;53.95;31.00;;;;;;;;;;5155404;27;20114;-71
2022/11/09 07:26:03;;;;;;;53.97;31.23;;;;;;;;;;5155120;27;20014;-71
2022/11/09 07:28:48;;;;;;;57.58;31.23;;;;;;;;;;5156431;27;20101;-72
2022/11/09 07:31:34;;;;;;;52.20;31.52;;;;;;;;;;5140512;27;20019;-73
2022/11/09 07:34:20;;;;;;;48.00;29.42;;;;;;;;;;5155174;27;20102;-73
2022/11/09 07:37:05;;;;;;;192.98;36.20;;;;;;;;;;5155615;27;20023;-72
2022/11/09 07:39:51;;;;;;;51.22;29.95;;;;;;;;;;5155586;27;20018;-72
2022/11/09 07:42:36;;;;;;;60.80;30.13;;;;;;;;;;5155699;27;20025;-74
2022/11/09 07:45:22;;;;;;;78.65;31.85;;;;;;;;;;5154608;27;20476;-73
2022/11/09 07:48:09;;;;;;;68.68;36.67;;;;;;;;;;5157036;27;20035;-73
2022/11/09 07:50:56;;;;;;;66.53;36.60;;;;;;;;;;5153915;27;20038;-72
2022/11/09 07:53:41;;;;;;;65.68;36.42;;;;;;;;;;5154803;27;20021;-74
2022/11/09 07:56:27;;;;;;;61.25;34.90;;;;;;;;;;5139581;27;20079;-73
2022/11/09 07:59:13;;;;;;;70.57;36.88;;;;;;;;;;5155584;27;20044;-74
2022/11/09 08:01:58;;;;;;;58.13;33.85;;;;;;;;;;5154851;27;20022;-73
2022/11/09 08:04:44;;;;;;;77.70;43.40;;;;;;;;;;5139658;27;20425;-73
2022/11/09 08:07:32;;;;;;;58.22;34.40;;;;;;;;;;5154541;27;20027;-72
2022/11/09 08:10:17;;;;;;;59.70;34.22;;;;;;;;;;5156031;27;20023;-74
2022/11/09 08:13:08;;;;;;;55.20;33.67;;;;;;;;;;5155579;27;20110;-75
2022/11/09 08:15:54;;;;;;;65.07;35.17;;;;;;;;;;5154602;27;20394;-74
2022/11/09 08:18:39;;;;;;;69.53;33.70;;;;;;;;;;5154975;27;20347;-74
2022/11/09 08:21:25;;;;;;;62.95;33.60;;;;;;;;;;5155323;27;20023;-73
2022/11/09 08:24:10;;;;;;;64.10;34.92;;;;;;;;;;5155285;27;20061;-74
2022/11/09 08:26:56;;;;;;;58.33;33.95;;;;;;;;;;5155626;27;20030;-75
2022/11/09 08:29:41;;;;;;;60.75;35.15;;;;;;;;;;5155810;27;20023;-75
2022/11/09 08:32:27;;;;;;;79.15;35.33;;;;;;;;;;5139770;27;20019;-74
2022/11/09 08:35:16;;;;;;;62.55;35.13;;;;;;;;;;5156067;27;20079;-73
2022/11/09 08:38:02;;;;;;;54.47;32.80;;;;;;;;;;5154985;27;20454;-75
2022/11/09 08:40:48;;;;;;;57.78;33.05;;;;;;;;;;5155375;27;20027;-75
2022/11/09 08:43:34;;;;;;;62.00;33.75;;;;;;;;;;5153472;27;20011;-75
2022/11/09 08:46:19;;;;;;;63.70;35.63;;;;;;;;;;5153454;27;20391;-75
2022/11/09 08:49:05;;;;;;;60.45;34.35;;;;;;;;;;5155770;27;20401;-74
2022/11/09 08:51:50;;;;;;;61.80;34.25;;;;;;;;;;5154108;27;20452;-75
2022/11/09 08:54:36;;;;;;;63.30;33.85;;;;;;;;;;5155131;27;20163;-75
2022/11/09 08:57:22;;;;;;;62.83;33.60;;;;;;;;;;5153086;27;20011;-75
2022/11/09 09:00:08;;;;;;;62.05;35.95;;;;;;;;;;5156433;27;20450;-75
2022/11/09 09:02:53;;;;;;;61.78;34.65;;;;;;;;;;5158434;27;20031;-76
2022/11/09 09:05:39;;;;;;;51.90;31.30;;;;;;;;;;5158536;27;20420;-76
2022/11/09 09:08:24;;;;;;;61.28;34.35;;;;;;;;;;5143434;27;20050;-72
2022/11/09 09:11:10;;;;;;;57.65;33.35;;;;;;;;;;5158576;27;20022;-74
2022/11/09 09:13:55;;;;;;;54.92;32.78;;;;;;;;;;5157045;27;20083;-73
2022/11/09 09:16:41;;;;;;;52.00;31.25;;;;;;;;;;5158331;27;20014;-73
2022/11/09 09:19:27;;;;;;;55.42;31.48;;;;;;;;;;5157624;27;20019;-73
2022/11/09 09:22:12;;;;;;;57.20;30.92;;;;;;;;;;5157987;27;20437;-73
2022/11/09 09:24:58;;;;;;;52.35;31.75;;;;;;;;;;5158990;27;20022;-70
2022/11/09 09:27:44;;;;;;;52.53;30.30;;;;;;;;;;5158074;27;20018;-73
2022/11/09 09:30:29;;;;;;;51.37;30.43;;;;;;;;;;5157351;27;20019;-73
2022/11/09 09:33:15;;;;;;;51.20;29.85;;;;;;;;;;5158132;27;20402;-73
2022/11/09 09:36:01;;;;;;;51.63;30.05;;;;;;;;;;5142625;27;20026;-73
2022/11/09 09:38:50;;;;;;;58.85;29.25;;;;;;;;;;5157320;27;20098;-73
2022/11/09 09:41:38;;;;;;;58.25;31.08;;;;;;;;;;5157247;27;20019;-72
2022/11/09 09:44:37;;;;;;;51.17;29.50;;;;;;;;;;5156682;27;20425;-73
2022/11/09 09:48:01;;;;;;;56.25;29.30;;;;;;;;;;5157239;27;20087;-72
2022/11/09 09:50:51;;;;;;;59.00;31.20;;;;;;;;;;5074797;28;20359;-73
2022/11/09 09:53:41;;;;;;;60.78;30.98;;;;;;;;;;5073758;28;20041;-73
2022/11/09 09:56:32;;;;;;;50.00;28.45;;;;;;;;;;5151314;27;20022;-72
2022/11/09 09:59:31;;;;;;;45.30;26.85;;;;;;;;;;5156693;27;20033;-72
2022/11/09 10:02:20;;;;;;;52.97;29.30;;;;;;;;;;5158390;27;20102;-72
2022/11/09 10:05:11;;;;;;;53.72;29.85;;;;;;;;;;5157007;27;20428;-73
2022/11/09 10:08:04;;;;;;;53.38;29.75;;;;;;;;;;5140961;27;20106;-72
2022/11/09 10:11:03;;;;;;;59.88;32.17;;;;;;;;;;5156201;27;20109;-73
2022/11/09 10:14:04;;;;;;;52.72;29.88;;;;;;;;;;5157480;27;20449;-73
2022/11/09 10:16:55;;;;;;;51.90;28.92;;;;;;;;;;5157229;27;20464;-71
2022/11/09 10:19:52;;;;;;;53.42;30.67;;;;;;;;;;5157947;27;20031;-72
2022/11/09 10:22:47;;;;;;;47.05;26.98;;;;;;;;;;5157722;27;20109;-72
2022/11/09 10:25:36;;;;;;;52.13;30.08;;;;;;;;;;5156250;27;20363;-74
2022/11/09 10:28:25;;;;;;;50.90;30.15;;;;;;;;;;5157209;27;20018;-72
2022/11/09 10:31:18;;;;;;;46.72;27.20;;;;;;;;;;5140700;27;20014;-72
2022/11/09 10:34:15;;;;;;;47.67;27.88;;;;;;;;;;5156511;27;20079;-73
2022/11/09 10:37:06;;;;;;;48.00;28.38;;;;;;;;;;5156120;27;20014;-74
2022/11/09 10:39:55;;;;;;;51.88;28.95;;;;;;;;;;5156530;27;20018;-72
2022/11/09 10:42:47;;;;;;;53.25;28.27;;;;;;;;;;5141255;27;20083;-72
2022/11/09 10:45:34;;;;;;;55.63;29.40;;;;;;;;;;5156230;27;20085;-72
2022/11/09 10:48:28;;;;;;;69.30;30.67;;;;;;;;;;5156261;27;20037;-73
2022/11/09 10:51:31;;;;;;;71.38;30.27;;;;;;;;;;5156252;27;20023;-73
2022/11/09 10:54:22;;;;;;;48.38;27.60;;;;;;;;;;5155753;27;20101;-73
2022/11/09 10:57:11;;;;;;;53.97;27.73;;;;;;;;;;5156216;27;20513;-73
2022/11/09 10:59:57;;;;;;;43.67;26.98;;;;;;;;;;5156363;27;20466;-73
2022/11/09 11:02:44;;;;;;;41.92;27.25;;;;;;;;;;5156176;27;20018;-74
2022/11/09 11:05:30;;;;;;;42.30;25.98;;;;;;;;;;5155521;27;20030;-73
2022/11/09 11:08:27;;;;;;;42.15;27.52;;;;;;;;;;5157560;27;20117;-73
2022/11/09 11:11:18;;;;;;;48.58;28.42;;;;;;;;;;5156595;27;20440;-73
2022/11/09 11:14:13;;;;;;;47.10;25.88;;;;;;;;;;5140633;27;20034;-72
2022/11/09 11:16:58;;;;;;;46.70;26.58;;;;;;;;;;5159441;27;20015;-73
2022/11/09 11:19:44;;;;;;;42.10;25.98;;;;;;;;;;5155691;27;20079;-73
2022/11/09 11:22:30;;;;;;;43.72;25.88;;;;;;;;;;5140670;27;20352;-73
2022/11/09 11:25:18;;;;;;;45.75;27.33;;;;;;;;;;5155950;27;20030;-73
2022/11/09 11:28:10;;;;;;;41.72;26.13;;;;;;;;;;5154923;27;20026;-73
2022/11/09 11:30:55;;;;;;;45.10;27.38;;;;;;;;;;5154965;27;20106;-73
2022/11/09 11:33:41;;;;;;;47.83;28.52;;;;;;;;;;5155607;27;20019;-73
2022/11/09 11:36:41;;;;;;;43.25;26.20;;;;;;;;;;5155287;27;20019;-73
2022/11/09 11:39:35;;;;;;;40.92;24.35;;;;;;;;;;5155097;27;20029;-72
2022/11/09 11:42:46;;;;;;;46.05;25.13;;;;;;;;;;5154686;27;20015;-73
2022/11/09 11:45:35;;;;;;;45.83;25.40;;;;;;;;;;5154706;27;20434;-73
2022/11/09 11:48:30;;;;;;;40.97;25.02;;;;;;;;;;5155225;27;20037;-73
2022/11/09 11:51:15;;;;;;;39.25;24.23;;;;;;;;;;5139775;27;20560;-73
2022/11/09 11:54:05;;;;;;;43.85;25.48;;;;;;;;;;5156037;27;20097;-73
2022/11/09 11:57:08;;;;;;;43.08;25.15;;;;;;;;;;5154983;27;20015;-73
2022/11/09 12:00:02;;;;;;;42.35;24.95;;;;;;;;;;5155409;27;20069;-74
2022/11/09 12:02:57;;;;;;;42.13;26.38;;;;;;;;;;5154245;27;20083;-74
2022/11/09 12:06:01;;;;;;;47.22;25.00;;;;;;;;;;5139612;27;20018;-73
2022/11/09 12:09:11;;;;;;;41.08;24.15;;;;;;;;;;5155158;27;20029;-74
2022/11/09 12:12:05;;;;;;;39.53;24.08;;;;;;;;;;5154777;27;20065;-74
2022/11/09 12:14:54;;;;;;;39.30;22.52;;;;;;;;;;5155567;27;20011;-72
2022/11/09 12:17:42;;;;;;;39.63;25.80;;;;;;;;;;5154857;27;20475;-71
2022/11/09 12:20:46;;;;;;;36.47;24.13;;;;;;;;;;5155238;27;20023;-72
2022/11/09 12:23:38;;;;;;;38.90;23.65;;;;;;;;;;5155097;27;20037;-72
2022/11/09 12:26:27;;;;;;;32.47;22.45;;;;;;;;;;5155211;27;20425;-73
2022/11/09 12:29:20;;;;;;;34.15;21.23;;;;;;;;;;5155253;27;20433;-73
2022/11/09 12:32:32;;;;;;;35.28;20.15;;;;;;;;;;5154249;27;20033;-73
2022/11/09 12:35:32;;;;;;;35.92;22.33;;;;;;;;;;5157151;27;20360;-73
2022/11/09 12:38:24;;;;;;;40.92;21.35;;;;;;;;;;5158666;27;20026;-72
2022/11/09 12:41:15;;;;;;;34.63;21.25;;;;;;;;;;5159720;27;20022;-75
2022/11/09 12:44:08;;;;;;;33.72;20.50;;;;;;;;;;5142945;27;20018;-73
2022/11/09 12:47:01;;;;;;;42.25;26.60;;;;;;;;;;5158494;27;20033;-72
2022/11/09 12:49:47;;;;;;;33.75;20.42;;;;;;;;;;5159164;27;20367;-73
2022/11/09 12:52:33;;;;;;;33.00;19.50;;;;;;;;;;5158193;27;20026;-73
2022/11/09 12:55:21;;;;;;;32.70;19.45;;;;;;;;;;5158785;27;20033;-73
2022/11/09 12:58:07;;;;;;;30.52;19.60;;;;;;;;;;5158817;27;20022;-72
2022/11/09 13:00:54;;;;;;;34.10;19.63;;;;;;;;;;5158003;27;20432;-73
2022/11/09 13:03:51;;;;;;;33.08;19.63;;;;;;;;;;5158371;27;20023;-76
2022/11/09 13:06:36;;;;;;;29.42;18.88;;;;;;;;;;5158633;27;20496;-76
2022/11/09 13:09:24;;;;;;;30.95;20.35;;;;;;;;;;5158085;27;20125;-75
2022/11/09 13:12:26;;;;;;;32.60;20.42;;;;;;;;;;5157659;27;20026;-75
2022/11/09 13:15:21;;;;;;;37.00;20.60;;;;;;;;;;5157969;27;20026;-75
2022/11/09 13:18:22;;;;;;;31.80;19.23;;;;;;;;;;5159092;27;20084;-75
2022/11/09 13:21:19;;;;;;;38.33;18.92;;;;;;;;;;5158389;27;20022;-75
2022/11/09 13:24:24;;;;;;;29.90;18.75;;;;;;;;;;5157127;27;20325;-76
2022/11/09 13:27:29;;;;;;;33.85;19.08;;;;;;;;;;5158314;27;20505;-75
2022/11/09 13:30:35;;;;;;;37.15;19.65;;;;;;;;;;5158206;27;20022;-75
2022/11/09 13:33:24;;;;;;;30.48;19.80;;;;;;;;;;5155613;27;20031;-76
2022/11/09 13:36:10;;;;;;;33.30;20.13;;;;;;;;;;5157754;27;20041;-76
2022/11/09 13:39:14;;;;;;;33.80;20.50;;;;;;;;;;5158015;27;20154;-76
2022/11/09 13:42:01;;;;;;;31.08;19.10;;;;;;;;;;5143449;27;20019;-75
2022/11/09 13:44:46;;;;;;;34.78;21.00;;;;;;;;;;5157821;27;20054;-75
2022/11/09 13:47:35;;;;;;;35.33;21.65;;;;;;;;;;5158066;27;20018;-74
2022/11/09 13:50:22;;;;;;;32.97;19.92;;;;;;;;;;5157446;27;20037;-75
2022/11/09 13:53:28;;;;;;;33.85;19.63;;;;;;;;;;5157280;27;20034;-75
2022/11/09 13:56:28;;;;;;;33.45;20.20;;;;;;;;;;5142993;27;20101;-74
2022/11/09 13:59:32;;;;;;;35.92;20.75;;;;;;;;;;5156423;27;20030;-74
2022/11/09 14:02:22;;;;;;;31.13;19.08;;;;;;;;;;5157766;27;20133;-74
2022/11/09 14:05:24;;;;;;;32.55;19.08;;;;;;;;;;5157511;27;20029;-75
2022/11/09 14:08:19;;;;;;;33.60;19.45;;;;;;;;;;5156408;27;20086;-74
2022/11/09 14:11:04;;;;;;;32.58;19.17;;;;;;;;;;5156412;27;20026;-75
2022/11/09 14:13:59;;;;;;;30.33;18.98;;;;;;;;;;5157094;27;20023;-76
2022/11/09 14:16:50;;;;;;;31.38;18.13;;;;;;;;;;5141138;27;20452;-73
2022/11/09 14:20:05;;;;;;;30.17;18.52;;;;;;;;;;5140820;27;20021;-76
2022/11/09 14:22:51;;;;;;;31.55;19.08;;;;;;;;;;5095149;27;20019;-74
2022/11/09 14:25:36;;;;;;;29.48;17.48;;;;;;;;;;5156871;27;20022;-76
2022/11/09 14:28:25;;;;;;;31.33;18.45;;;;;;;;;;5140801;27;20325;-74
2022/11/09 14:31:21;;;;;;;30.30;19.50;;;;;;;;;;5155386;27;20022;-75
2022/11/09 14:34:13;;;;;;;30.52;19.05;;;;;;;;;;5155845;27;20030;-74
2022/11/09 14:36:59;;;;;;;26.20;17.80;;;;;;;;;;5156145;27;20075;-73
2022/11/09 14:39:48;;;;;;;28.73;18.15;;;;;;;;;;5156494;27;20011;-74
2022/11/09 14:42:34;;;;;;;33.85;19.00;;;;;;;;;;5155593;27;20023;-75
2022/11/09 14:45:20;;;;;;;30.67;18.70;;;;;;;;;;5155763;27;20066;-76
2022/11/09 14:48:14;;;;;;;33.42;18.85;;;;;;;;;;5155539;27;20026;-75
2022/11/09 14:51:00;;;;;;;35.30;18.90;;;;;;;;;;5156025;27;20011;-76
2022/11/09 14:53:47;;;;;;;36.40;19.15;;;;;;;;;;5156016;27;20075;-74
2022/11/09 14:56:33;;;;;;;27.55;18.30;;;;;;;;;;5155247;27;20014;-75
2022/11/09 14:59:28;;;;;;;36.22;19.55;;;;;;;;;;5156771;27;20340;-75
2022/11/09 15:02:18;;;;;;;38.78;18.85;;;;;;;;;;5155650;27;20026;-75
2022/11/09 15:05:05;;;;;;;32.78;19.88;;;;;;;;;;5154799;27;20015;-76
2022/11/09 15:07:50;;;;;;;41.10;18.88;;;;;;;;;;5154364;27;20034;-75
2022/11/09 15:10:36;;;;;;;35.40;18.17;;;;;;;;;;5156659;27;20031;-75
2022/11/09 15:13:30;;;;;;;32.92;19.67;;;;;;;;;;5155255;27;20170;-74
2022/11/09 15:16:23;;;;;;;38.80;21.55;;;;;;;;;;5155619;27;20007;-74
2022/11/09 15:19:22;;;;;;;42.00;20.48;;;;;;;;;;5155114;27;20034;-75
2022/11/09 15:22:26;;;;;;;40.10;20.65;;;;;;;;;;5154877;27;20037;-75
2022/11/09 15:25:23;;;;;;;39.33;20.15;;;;;;;;;;5155821;27;20114;-75
2022/11/09 15:28:11;;;;;;;43.47;22.55;;;;;;;;;;5139522;27;20312;-74
2022/11/09 15:31:00;;;;;;;47.22;22.77;;;;;;;;;;5156333;27;20018;-74
2022/11/09 15:33:47;;;;;;;37.30;22.58;;;;;;;;;;5156567;27;20098;-75
2022/11/09 15:36:34;;;;;;;40.67;21.75;;;;;;;;;;5155669;27;20052;-74
2022/11/09 15:39:21;;;;;;;37.13;21.40;;;;;;;;;;5156133;27;20057;-76
2022/11/09 15:42:09;;;;;;;41.90;22.58;;;;;;;;;;5154902;27;20110;-74
2022/11/09 15:44:56;;;;;;;40.05;21.92;;;;;;;;;;5154890;27;20490;-74
2022/11/09 15:47:48;;;;;;;49.90;23.77;;;;;;;;;;5154149;27;20511;-75
2022/11/09 15:50:33;;;;;;;41.47;23.08;;;;;;;;;;5156372;27;20360;-75
2022/11/09 15:53:19;;;;;;;50.90;25.45;;;;;;;;;;5139719;27;20029;-75
2022/11/09 15:56:05;;;;;;;46.50;25.55;;;;;;;;;;5154880;27;20351;-74
2022/11/09 15:58:52;;;;;;;43.10;25.17;;;;;;;;;;5154018;27;20361;-75
2022/11/09 16:01:38;;;;;;;44.75;25.13;;;;;;;;;;5140470;27;20319;-75
2022/11/09 16:04:24;;;;;;;44.63;26.58;;;;;;;;;;5154975;27;20034;-76
2022/11/09 16:07:13;;;;;;;46.33;25.17;;;;;;;;;;5154338;27;20026;-74
2022/11/09 16:09:58;;;;;;;54.03;25.95;;;;;;;;;;5139219;27;20018;-77
2022/11/09 16:12:44;;;;;;;46.65;26.38;;;;;;;;;;5157325;27;20018;-77
2022/11/09 16:15:30;;;;;;;48.95;29.88;;;;;;;;;;5154211;27;20329;-75
2022/11/09 16:18:16;;;;;;;53.60;29.77;;;;;;;;;;5155442;27;20030;-75